sensor_id;sensor_type;location;lat;lon;timestamp;P1;durP1;ratioP1;P2;durP2;ratioP2
21601;SDS011;10963;50.934;4.668;2022-08-02T00:02:01;8.37;;;4.27;;
21601;SDS011;10963;50.934;4.668;2022-08-02T00:04:30;6.30;;;3.50;;
21601;SDS011;10963;50.934;4.668;2022-08-02T00:07:01;6.43;;;3.80;;
21601;SDS011;10963;50.934;4.668;2022-08-02T00:09:32;4.37;;;3.40;;
21601;SDS011;10963;50.934;4.668;2022-08-02T00:11:58;4.50;;;3.07;;
21601;SDS011;10963;50.934;4.668;2022-08-02T00:14:26;6.10;;;3.60;;
21601;SDS011;10963;50.934;4.668;2022-08-02T00:16:52;5.57;;;3.80;;
21601;SDS011;10963;50.934;4.668;2022-08-02T00:19:19;8.20;;;3.90;;
21601;SDS011;10963;50.934;4.668;2022-08-02T00:21:47;5.40;;;3.67;;
21601;SDS011;10963;50.934;4.668;2022-08-02T00:24:15;9.07;;;3.90;;
21601;SDS011;10963;50.934;4.668;2022-08-02T00:26:43;9.93;;;3.77;;
21601;SDS011;10963;50.934;4.668;2022-08-02T00:29:11;7.27;;;3.93;;
21601;SDS011;10963;50.934;4.668;2022-08-02T00:31:41;5.60;;;3.63;;
21601;SDS011;10963;50.934;4.668;2022-08-02T00:34:10;5.43;;;3.80;;
21601;SDS011;10963;50.934;4.668;2022-08-02T00:36:38;7.83;;;3.50;;
21601;SDS011;10963;50.934;4.668;2022-08-02T00:39:08;5.53;;;3.37;;
21601;SDS011;10963;50.934;4.668;2022-08-02T00:41:42;5.53;;;3.40;;
21601;SDS011;10963;50.934;4.668;2022-08-02T00:44:13;7.07;;;3.30;;
21601;SDS011;10963;50.934;4.668;2022-08-02T00:46:42;7.03;;;3.67;;
21601;SDS011;10963;50.934;4.668;2022-08-02T00:49:09;6.17;;;3.90;;
21601;SDS011;10963;50.934;4.668;2022-08-02T00:51:41;4.83;;;3.23;;
21601;SDS011;10963;50.934;4.668;2022-08-02T00:54:06;6.27;;;3.87;;
21601;SDS011;10963;50.934;4.668;2022-08-02T00:56:33;5.63;;;3.37;;
21601;SDS011;10963;50.934;4.668;2022-08-02T00:59:02;5.60;;;3.87;;
21601;SDS011;10963;50.934;4.668;2022-08-02T01:01:28;9.80;;;4.03;;
21601;SDS011;10963;50.934;4.668;2022-08-02T01:04:06;4.30;;;3.30;;
21601;SDS011;10963;50.934;4.668;2022-08-02T01:06:37;6.27;;;3.93;;
21601;SDS011;10963;50.934;4.668;2022-08-02T01:09:08;7.20;;;3.90;;
21601;SDS011;10963;50.934;4.668;2022-08-02T01:11:34;8.30;;;4.00;;
21601;SDS011;10963;50.934;4.668;2022-08-02T01:14:02;6.10;;;3.80;;
21601;SDS011;10963;50.934;4.668;2022-08-02T01:16:31;11.60;;;4.10;;
21601;SDS011;10963;50.934;4.668;2022-08-02T01:19:32;9.10;;;4.13;;
21601;SDS011;10963;50.934;4.668;2022-08-02T01:25:18;8.30;;;4.00;;
21601;SDS011;10963;50.934;4.668;2022-08-02T01:31:06;6.03;;;4.13;;
21601;SDS011;10963;50.934;4.668;2022-08-02T01:33:42;5.63;;;3.70;;
21601;SDS011;10963;50.934;4.668;2022-08-02T01:36:14;6.03;;;4.10;;
21601;SDS011;10963;50.934;4.668;2022-08-02T01:38:44;8.30;;;3.77;;
21601;SDS011;10963;50.934;4.668;2022-08-02T01:41:17;7.20;;;3.77;;
21601;SDS011;10963;50.934;4.668;2022-08-02T01:43:48;7.10;;;3.60;;
21601;SDS011;10963;50.934;4.668;2022-08-02T01:46:22;6.43;;;4.33;;
21601;SDS011;10963;50.934;4.668;2022-08-02T01:48:49;11.67;;;4.47;;
21601;SDS011;10963;50.934;4.668;2022-08-02T01:51:24;4.73;;;3.90;;
21601;SDS011;10963;50.934;4.668;2022-08-02T01:54:14;7.57;;;3.90;;
21601;SDS011;10963;50.934;4.668;2022-08-02T01:56:43;5.57;;;4.10;;
21601;SDS011;10963;50.934;4.668;2022-08-02T01:59:14;6.70;;;3.97;;
21601;SDS011;10963;50.934;4.668;2022-08-02T02:01:45;4.87;;;3.60;;
21601;SDS011;10963;50.934;4.668;2022-08-02T02:04:13;8.13;;;4.50;;
21601;SDS011;10963;50.934;4.668;2022-08-02T02:06:42;6.07;;;4.93;;
21601;SDS011;10963;50.934;4.668;2022-08-02T02:09:09;6.63;;;4.47;;
21601;SDS011;10963;50.934;4.668;2022-08-02T02:11:36;6.70;;;4.47;;
21601;SDS011;10963;50.934;4.668;2022-08-02T02:14:09;5.37;;;4.87;;
21601;SDS011;10963;50.934;4.668;2022-08-02T02:16:36;7.97;;;5.30;;
21601;SDS011;10963;50.934;4.668;2022-08-02T02:19:08;8.33;;;5.33;;
21601;SDS011;10963;50.934;4.668;2022-08-02T02:21:42;8.70;;;5.03;;
21601;SDS011;10963;50.934;4.668;2022-08-02T02:24:11;8.10;;;5.50;;
21601;SDS011;10963;50.934;4.668;2022-08-02T02:26:37;11.30;;;6.60;;
21601;SDS011;10963;50.934;4.668;2022-08-02T02:29:06;8.00;;;5.57;;
21601;SDS011;10963;50.934;4.668;2022-08-02T02:31:37;8.27;;;6.27;;
21601;SDS011;10963;50.934;4.668;2022-08-02T02:34:13;10.20;;;5.97;;
21601;SDS011;10963;50.934;4.668;2022-08-02T02:36:46;9.87;;;6.10;;
21601;SDS011;10963;50.934;4.668;2022-08-02T02:39:16;8.47;;;6.37;;
21601;SDS011;10963;50.934;4.668;2022-08-02T02:41:44;8.50;;;6.57;;
21601;SDS011;10963;50.934;4.668;2022-08-02T02:44:17;7.17;;;5.60;;
21601;SDS011;10963;50.934;4.668;2022-08-02T02:46:45;8.47;;;6.20;;
21601;SDS011;10963;50.934;4.668;2022-08-02T02:49:15;9.03;;;6.50;;
21601;SDS011;10963;50.934;4.668;2022-08-02T02:51:47;9.77;;;6.03;;
21601;SDS011;10963;50.934;4.668;2022-08-02T02:54:16;10.83;;;6.00;;
21601;SDS011;10963;50.934;4.668;2022-08-02T02:56:44;8.60;;;6.47;;
21601;SDS011;10963;50.934;4.668;2022-08-02T02:59:11;10.80;;;6.10;;
21601;SDS011;10963;50.934;4.668;2022-08-02T03:01:41;7.60;;;5.90;;
21601;SDS011;10963;50.934;4.668;2022-08-02T03:04:09;9.93;;;6.23;;
21601;SDS011;10963;50.934;4.668;2022-08-02T03:06:40;9.67;;;5.97;;
21601;SDS011;10963;50.934;4.668;2022-08-02T03:09:09;10.90;;;5.70;;
21601;SDS011;10963;50.934;4.668;2022-08-02T03:11:35;9.00;;;6.50;;
21601;SDS011;10963;50.934;4.668;2022-08-02T03:14:04;9.17;;;6.20;;
21601;SDS011;10963;50.934;4.668;2022-08-02T03:16:32;10.17;;;6.20;;
21601;SDS011;10963;50.934;4.668;2022-08-02T03:19:05;11.33;;;6.10;;
21601;SDS011;10963;50.934;4.668;2022-08-02T03:21:31;9.17;;;6.27;;
21601;SDS011;10963;50.934;4.668;2022-08-02T03:23:58;10.00;;;5.97;;
21601;SDS011;10963;50.934;4.668;2022-08-02T03:26:26;9.70;;;5.83;;
21601;SDS011;10963;50.934;4.668;2022-08-02T03:28:52;12.83;;;6.20;;
21601;SDS011;10963;50.934;4.668;2022-08-02T03:31:18;9.50;;;6.00;;
21601;SDS011;10963;50.934;4.668;2022-08-02T03:33:43;9.70;;;6.13;;
21601;SDS011;10963;50.934;4.668;2022-08-02T03:36:10;7.67;;;5.97;;
21601;SDS011;10963;50.934;4.668;2022-08-02T03:38:40;8.40;;;5.97;;
21601;SDS011;10963;50.934;4.668;2022-08-02T03:41:09;8.87;;;5.83;;
21601;SDS011;10963;50.934;4.668;2022-08-02T03:43:37;9.27;;;5.77;;
21601;SDS011;10963;50.934;4.668;2022-08-02T03:46:04;6.73;;;5.33;;
21601;SDS011;10963;50.934;4.668;2022-08-02T03:48:34;6.37;;;5.60;;
21601;SDS011;10963;50.934;4.668;2022-08-02T03:51:03;7.60;;;5.60;;
21601;SDS011;10963;50.934;4.668;2022-08-02T03:53:34;9.20;;;5.20;;
21601;SDS011;10963;50.934;4.668;2022-08-02T03:56:01;8.10;;;5.20;;
21601;SDS011;10963;50.934;4.668;2022-08-02T03:58:30;8.53;;;5.43;;
21601;SDS011;10963;50.934;4.668;2022-08-02T04:00:57;10.40;;;5.60;;
21601;SDS011;10963;50.934;4.668;2022-08-02T04:03:26;9.60;;;5.73;;
21601;SDS011;10963;50.934;4.668;2022-08-02T04:05:52;9.00;;;5.63;;
21601;SDS011;10963;50.934;4.668;2022-08-02T04:08:20;8.63;;;5.47;;
21601;SDS011;10963;50.934;4.668;2022-08-02T04:10:46;7.60;;;5.13;;
21601;SDS011;10963;50.934;4.668;2022-08-02T04:13:34;7.47;;;5.50;;
21601;SDS011;10963;50.934;4.668;2022-08-02T04:16:14;10.00;;;6.00;;
21601;SDS011;10963;50.934;4.668;2022-08-02T04:18:49;7.77;;;5.40;;
21601;SDS011;10963;50.934;4.668;2022-08-02T04:21:20;9.27;;;5.60;;
21601;SDS011;10963;50.934;4.668;2022-08-02T04:23:48;7.87;;;5.50;;
21601;SDS011;10963;50.934;4.668;2022-08-02T04:26:15;6.73;;;5.53;;
21601;SDS011;10963;50.934;4.668;2022-08-02T04:28:43;11.07;;;5.77;;
21601;SDS011;10963;50.934;4.668;2022-08-02T04:31:09;8.10;;;5.83;;
21601;SDS011;10963;50.934;4.668;2022-08-02T04:33:38;14.83;;;6.80;;
21601;SDS011;10963;50.934;4.668;2022-08-02T04:36:06;9.50;;;5.03;;
21601;SDS011;10963;50.934;4.668;2022-08-02T04:38:32;8.63;;;5.77;;
21601;SDS011;10963;50.934;4.668;2022-08-02T04:41:01;8.47;;;5.63;;
21601;SDS011;10963;50.934;4.668;2022-08-02T04:43:31;10.13;;;5.90;;
21601;SDS011;10963;50.934;4.668;2022-08-02T04:45:57;7.37;;;4.87;;
21601;SDS011;10963;50.934;4.668;2022-08-02T04:48:27;6.00;;;5.20;;
21601;SDS011;10963;50.934;4.668;2022-08-02T04:50:53;6.13;;;5.13;;
21601;SDS011;10963;50.934;4.668;2022-08-02T04:53:21;6.13;;;5.33;;
21601;SDS011;10963;50.934;4.668;2022-08-02T04:55:47;7.13;;;5.10;;
21601;SDS011;10963;50.934;4.668;2022-08-02T04:58:13;5.53;;;5.00;;
21601;SDS011;10963;50.934;4.668;2022-08-02T05:00:38;9.47;;;5.23;;
21601;SDS011;10963;50.934;4.668;2022-08-02T05:03:06;9.53;;;5.17;;
21601;SDS011;10963;50.934;4.668;2022-08-02T05:05:34;8.60;;;5.33;;
21601;SDS011;10963;50.934;4.668;2022-08-02T05:08:06;9.07;;;5.53;;
21601;SDS011;10963;50.934;4.668;2022-08-02T05:10:31;7.90;;;5.03;;
21601;SDS011;10963;50.934;4.668;2022-08-02T05:12:57;8.20;;;5.43;;
21601;SDS011;10963;50.934;4.668;2022-08-02T05:15:23;5.13;;;4.63;;
21601;SDS011;10963;50.934;4.668;2022-08-02T05:17:51;5.30;;;4.80;;
21601;SDS011;10963;50.934;4.668;2022-08-02T05:20:19;11.20;;;4.70;;
21601;SDS011;10963;50.934;4.668;2022-08-02T05:22:45;6.40;;;4.77;;
21601;SDS011;10963;50.934;4.668;2022-08-02T05:25:14;11.93;;;5.80;;
21601;SDS011;10963;50.934;4.668;2022-08-02T05:27:43;5.50;;;4.90;;
21601;SDS011;10963;50.934;4.668;2022-08-02T05:30:11;7.77;;;5.20;;
21601;SDS011;10963;50.934;4.668;2022-08-02T05:32:47;7.30;;;4.80;;
21601;SDS011;10963;50.934;4.668;2022-08-02T05:35:17;6.97;;;5.17;;
21601;SDS011;10963;50.934;4.668;2022-08-02T05:37:44;7.60;;;5.40;;
21601;SDS011;10963;50.934;4.668;2022-08-02T05:40:11;9.37;;;5.03;;
21601;SDS011;10963;50.934;4.668;2022-08-02T05:42:40;6.90;;;5.50;;
21601;SDS011;10963;50.934;4.668;2022-08-02T05:45:08;5.53;;;4.80;;
21601;SDS011;10963;50.934;4.668;2022-08-02T05:47:37;7.43;;;5.00;;
21601;SDS011;10963;50.934;4.668;2022-08-02T05:50:03;7.73;;;4.83;;
21601;SDS011;10963;50.934;4.668;2022-08-02T05:55:31;8.03;;;5.17;;
21601;SDS011;10963;50.934;4.668;2022-08-02T05:58:15;6.60;;;4.63;;
21601;SDS011;10963;50.934;4.668;2022-08-02T06:00:50;6.40;;;4.30;;
21601;SDS011;10963;50.934;4.668;2022-08-02T06:03:30;8.43;;;5.50;;
21601;SDS011;10963;50.934;4.668;2022-08-02T06:08:41;12.83;;;4.57;;
21601;SDS011;10963;50.934;4.668;2022-08-02T06:11:11;5.63;;;4.53;;
21601;SDS011;10963;50.934;4.668;2022-08-02T06:13:41;8.17;;;4.47;;
21601;SDS011;10963;50.934;4.668;2022-08-02T06:16:09;8.43;;;4.20;;
21601;SDS011;10963;50.934;4.668;2022-08-02T06:18:37;5.00;;;4.50;;
21601;SDS011;10963;50.934;4.668;2022-08-02T06:21:08;5.67;;;4.13;;
21601;SDS011;10963;50.934;4.668;2022-08-02T06:23:38;7.53;;;4.47;;
21601;SDS011;10963;50.934;4.668;2022-08-02T06:26:06;6.90;;;4.63;;
21601;SDS011;10963;50.934;4.668;2022-08-02T06:28:38;8.00;;;4.50;;
21601;SDS011;10963;50.934;4.668;2022-08-02T06:31:07;5.63;;;4.33;;
21601;SDS011;10963;50.934;4.668;2022-08-02T06:33:33;7.53;;;4.57;;
21601;SDS011;10963;50.934;4.668;2022-08-02T06:36:03;7.57;;;4.40;;
21601;SDS011;10963;50.934;4.668;2022-08-02T06:38:38;7.28;;;4.68;;
21601;SDS011;10963;50.934;4.668;2022-08-02T06:41:12;6.38;;;4.68;;
21601;SDS011;10963;50.934;4.668;2022-08-02T06:46:31;12.02;;;5.53;;
21601;SDS011;10963;50.934;4.668;2022-08-02T06:48:58;11.27;;;5.10;;
21601;SDS011;10963;50.934;4.668;2022-08-02T06:51:27;4.95;;;4.00;;
21601;SDS011;10963;50.934;4.668;2022-08-02T06:53:52;5.72;;;4.93;;
21601;SDS011;10963;50.934;4.668;2022-08-02T06:56:18;7.43;;;5.07;;
21601;SDS011;10963;50.934;4.668;2022-08-02T06:58:49;9.13;;;4.60;;
21601;SDS011;10963;50.934;4.668;2022-08-02T07:01:16;7.60;;;4.82;;
21601;SDS011;10963;50.934;4.668;2022-08-02T07:03:45;5.47;;;4.32;;
21601;SDS011;10963;50.934;4.668;2022-08-02T07:06:11;5.45;;;4.18;;
21601;SDS011;10963;50.934;4.668;2022-08-02T07:08:39;5.45;;;3.78;;
21601;SDS011;10963;50.934;4.668;2022-08-02T07:11:06;6.50;;;3.80;;
21601;SDS011;10963;50.934;4.668;2022-08-02T07:13:33;6.32;;;3.80;;
21601;SDS011;10963;50.934;4.668;2022-08-02T07:16:04;5.40;;;3.60;;
21601;SDS011;10963;50.934;4.668;2022-08-02T07:18:30;5.47;;;4.05;;
21601;SDS011;10963;50.934;4.668;2022-08-02T07:20:57;5.38;;;3.20;;
21601;SDS011;10963;50.934;4.668;2022-08-02T07:23:28;5.55;;;2.95;;
21601;SDS011;10963;50.934;4.668;2022-08-02T07:25:55;3.38;;;3.03;;
21601;SDS011;10963;50.934;4.668;2022-08-02T07:28:20;14.57;;;3.42;;
21601;SDS011;10963;50.934;4.668;2022-08-02T07:30:46;5.32;;;2.92;;
21601;SDS011;10963;50.934;4.668;2022-08-02T07:33:12;4.18;;;3.05;;
21601;SDS011;10963;50.934;4.668;2022-08-02T07:35:37;8.80;;;3.30;;
21601;SDS011;10963;50.934;4.668;2022-08-02T07:38:06;4.55;;;2.95;;
21601;SDS011;10963;50.934;4.668;2022-08-02T07:40:32;4.00;;;2.78;;
21601;SDS011;10963;50.934;4.668;2022-08-02T07:42:58;7.47;;;3.05;;
21601;SDS011;10963;50.934;4.668;2022-08-02T07:45:24;5.18;;;2.60;;
21601;SDS011;10963;50.934;4.668;2022-08-02T07:47:50;4.72;;;2.60;;
21601;SDS011;10963;50.934;4.668;2022-08-02T07:50:17;3.70;;;2.13;;
21601;SDS011;10963;50.934;4.668;2022-08-02T07:52:47;2.17;;;1.77;;
21601;SDS011;10963;50.934;4.668;2022-08-02T07:55:16;2.80;;;1.98;;
21601;SDS011;10963;50.934;4.668;2022-08-02T07:57:42;2.95;;;2.17;;
21601;SDS011;10963;50.934;4.668;2022-08-02T08:00:12;2.47;;;2.28;;
21601;SDS011;10963;50.934;4.668;2022-08-02T08:02:42;3.22;;;2.63;;
21601;SDS011;10963;50.934;4.668;2022-08-02T08:05:09;4.00;;;2.17;;
21601;SDS011;10963;50.934;4.668;2022-08-02T08:07:38;3.22;;;1.90;;
21601;SDS011;10963;50.934;4.668;2022-08-02T08:10:06;6.93;;;1.90;;
21601;SDS011;10963;50.934;4.668;2022-08-02T08:12:33;2.08;;;1.77;;
21601;SDS011;10963;50.934;4.668;2022-08-02T08:15:01;3.92;;;2.10;;
21601;SDS011;10963;50.934;4.668;2022-08-02T08:17:28;5.35;;;1.65;;
21601;SDS011;10963;50.934;4.668;2022-08-02T08:19:56;1.80;;;1.70;;
21601;SDS011;10963;50.934;4.668;2022-08-02T08:22:24;1.52;;;1.42;;
21601;SDS011;10963;50.934;4.668;2022-08-02T08:24:50;2.88;;;1.88;;
21601;SDS011;10963;50.934;4.668;2022-08-02T08:27:16;5.70;;;1.88;;
21601;SDS011;10963;50.934;4.668;2022-08-02T08:29:47;4.40;;;1.80;;
21601;SDS011;10963;50.934;4.668;2022-08-02T08:32:14;3.08;;;1.70;;
21601;SDS011;10963;50.934;4.668;2022-08-02T08:34:41;1.58;;;1.48;;
21601;SDS011;10963;50.934;4.668;2022-08-02T08:37:07;4.70;;;2.88;;
21601;SDS011;10963;50.934;4.668;2022-08-02T08:39:36;3.25;;;1.63;;
21601;SDS011;10963;50.934;4.668;2022-08-02T08:42:04;2.72;;;2.00;;
21601;SDS011;10963;50.934;4.668;2022-08-02T08:44:33;2.70;;;1.70;;
21601;SDS011;10963;50.934;4.668;2022-08-02T08:47:02;2.13;;;1.92;;
21601;SDS011;10963;50.934;4.668;2022-08-02T08:49:34;2.75;;;1.92;;
21601;SDS011;10963;50.934;4.668;2022-08-02T08:52:07;6.03;;;1.92;;
21601;SDS011;10963;50.934;4.668;2022-08-02T08:54:36;3.38;;;1.88;;
21601;SDS011;10963;50.934;4.668;2022-08-02T08:57:06;3.92;;;2.03;;
21601;SDS011;10963;50.934;4.668;2022-08-02T08:59:32;3.50;;;2.60;;
21601;SDS011;10963;50.934;4.668;2022-08-02T09:02:00;3.40;;;2.45;;
21601;SDS011;10963;50.934;4.668;2022-08-02T09:04:29;2.35;;;2.15;;
21601;SDS011;10963;50.934;4.668;2022-08-02T09:06:55;2.25;;;1.83;;
21601;SDS011;10963;50.934;4.668;2022-08-02T09:09:23;4.90;;;1.95;;
21601;SDS011;10963;50.934;4.668;2022-08-02T09:11:52;5.88;;;2.50;;
21601;SDS011;10963;50.934;4.668;2022-08-02T09:14:27;3.63;;;2.38;;
21601;SDS011;10963;50.934;4.668;2022-08-02T09:16:53;3.80;;;2.45;;
21601;SDS011;10963;50.934;4.668;2022-08-02T09:19:34;3.25;;;2.30;;
21601;SDS011;10963;50.934;4.668;2022-08-02T09:22:03;3.83;;;2.45;;
21601;SDS011;10963;50.934;4.668;2022-08-02T09:24:46;3.88;;;2.10;;
21601;SDS011;10963;50.934;4.668;2022-08-02T09:27:14;3.25;;;2.92;;
21601;SDS011;10963;50.934;4.668;2022-08-02T09:29:45;3.10;;;2.53;;
21601;SDS011;10963;50.934;4.668;2022-08-02T09:32:20;3.20;;;2.55;;
21601;SDS011;10963;50.934;4.668;2022-08-02T09:34:52;10.45;;;2.53;;
21601;SDS011;10963;50.934;4.668;2022-08-02T09:37:28;3.90;;;2.15;;
21601;SDS011;10963;50.934;4.668;2022-08-02T09:39:57;5.35;;;2.28;;
21601;SDS011;10963;50.934;4.668;2022-08-02T09:42:24;4.20;;;2.08;;
21601;SDS011;10963;50.934;4.668;2022-08-02T09:45:00;3.75;;;2.30;;
21601;SDS011;10963;50.934;4.668;2022-08-02T09:47:27;3.33;;;2.22;;
21601;SDS011;10963;50.934;4.668;2022-08-02T09:49:56;5.53;;;2.47;;
21601;SDS011;10963;50.934;4.668;2022-08-02T09:52:26;3.72;;;2.22;;
21601;SDS011;10963;50.934;4.668;2022-08-02T09:54:55;6.53;;;2.53;;
21601;SDS011;10963;50.934;4.668;2022-08-02T09:57:31;5.20;;;2.40;;
21601;SDS011;10963;50.934;4.668;2022-08-02T10:00:04;2.88;;;2.20;;
21601;SDS011;10963;50.934;4.668;2022-08-02T10:02:37;2.15;;;1.95;;
21601;SDS011;10963;50.934;4.668;2022-08-02T10:05:02;2.60;;;2.08;;
21601;SDS011;10963;50.934;4.668;2022-08-02T10:07:30;3.55;;;2.28;;
21601;SDS011;10963;50.934;4.668;2022-08-02T10:09:59;3.92;;;2.05;;
21601;SDS011;10963;50.934;4.668;2022-08-02T10:12:27;3.30;;;2.33;;
21601;SDS011;10963;50.934;4.668;2022-08-02T10:14:53;4.45;;;2.00;;
21601;SDS011;10963;50.934;4.668;2022-08-02T10:17:21;5.28;;;2.22;;
21601;SDS011;10963;50.934;4.668;2022-08-02T10:19:48;5.10;;;2.03;;
21601;SDS011;10963;50.934;4.668;2022-08-02T10:22:14;2.22;;;1.85;;
21601;SDS011;10963;50.934;4.668;2022-08-02T10:24:41;2.67;;;1.55;;
21601;SDS011;10963;50.934;4.668;2022-08-02T10:27:12;3.03;;;1.70;;
21601;SDS011;10963;50.934;4.668;2022-08-02T10:29:40;1.83;;;1.70;;
21601;SDS011;10963;50.934;4.668;2022-08-02T10:32:12;1.85;;;1.67;;
21601;SDS011;10963;50.934;4.668;2022-08-02T10:34:58;2.33;;;1.70;;
21601;SDS011;10963;50.934;4.668;2022-08-02T10:37:31;3.00;;;1.85;;
21601;SDS011;10963;50.934;4.668;2022-08-02T10:40:00;3.38;;;1.42;;
21601;SDS011;10963;50.934;4.668;2022-08-02T10:45:11;3.05;;;1.98;;
21601;SDS011;10963;50.934;4.668;2022-08-02T10:47:54;2.60;;;1.80;;
21601;SDS011;10963;50.934;4.668;2022-08-02T10:50:44;2.22;;;1.77;;
21601;SDS011;10963;50.934;4.668;2022-08-02T10:53:26;1.98;;;1.88;;
21601;SDS011;10963;50.934;4.668;2022-08-02T10:55:53;4.93;;;2.00;;
21601;SDS011;10963;50.934;4.668;2022-08-02T10:58:22;1.85;;;1.70;;
21601;SDS011;10963;50.934;4.668;2022-08-02T11:00:50;3.65;;;1.80;;
21601;SDS011;10963;50.934;4.668;2022-08-02T11:06:08;5.10;;;2.08;;
21601;SDS011;10963;50.934;4.668;2022-08-02T11:08:35;2.10;;;1.90;;
21601;SDS011;10963;50.934;4.668;2022-08-02T11:14:18;4.55;;;2.28;;
21601;SDS011;10963;50.934;4.668;2022-08-02T11:19:23;2.15;;;1.92;;
21601;SDS011;10963;50.934;4.668;2022-08-02T11:22:09;3.25;;;2.00;;
21601;SDS011;10963;50.934;4.668;2022-08-02T11:24:39;2.65;;;1.70;;
21601;SDS011;10963;50.934;4.668;2022-08-02T11:27:15;3.00;;;1.70;;
21601;SDS011;10963;50.934;4.668;2022-08-02T11:29:45;3.40;;;1.65;;
21601;SDS011;10963;50.934;4.668;2022-08-02T11:32:17;3.63;;;2.00;;
21601;SDS011;10963;50.934;4.668;2022-08-02T11:34:45;2.63;;;2.17;;
21601;SDS011;10963;50.934;4.668;2022-08-02T11:37:28;2.05;;;1.88;;
21601;SDS011;10963;50.934;4.668;2022-08-02T11:40:18;1.80;;;1.60;;
21601;SDS011;10963;50.934;4.668;2022-08-02T11:42:47;2.05;;;1.70;;
21601;SDS011;10963;50.934;4.668;2022-08-02T11:45:14;1.63;;;1.52;;
21601;SDS011;10963;50.934;4.668;2022-08-02T11:47:50;2.75;;;1.60;;
21601;SDS011;10963;50.934;4.668;2022-08-02T11:50:17;1.77;;;1.65;;
21601;SDS011;10963;50.934;4.668;2022-08-02T11:52:47;1.85;;;1.75;;
21601;SDS011;10963;50.934;4.668;2022-08-02T11:55:12;2.45;;;1.90;;
21601;SDS011;10963;50.934;4.668;2022-08-02T11:57:41;6.07;;;1.70;;
21601;SDS011;10963;50.934;4.668;2022-08-02T12:00:14;2.88;;;1.60;;
21601;SDS011;10963;50.934;4.668;2022-08-02T12:02:45;1.85;;;1.55;;
21601;SDS011;10963;50.934;4.668;2022-08-02T12:05:32;1.88;;;1.67;;
21601;SDS011;10963;50.934;4.668;2022-08-02T12:07:58;12.45;;;2.22;;
21601;SDS011;10963;50.934;4.668;2022-08-02T12:10:24;5.38;;;1.83;;
21601;SDS011;10963;50.934;4.668;2022-08-02T12:12:53;2.63;;;2.13;;
21601;SDS011;10963;50.934;4.668;2022-08-02T12:15:36;2.00;;;1.67;;
21601;SDS011;10963;50.934;4.668;2022-08-02T12:18:09;6.30;;;1.70;;
21601;SDS011;10963;50.934;4.668;2022-08-02T12:20:54;4.45;;;1.50;;
21601;SDS011;10963;50.934;4.668;2022-08-02T12:23:23;3.15;;;2.00;;
21601;SDS011;10963;50.934;4.668;2022-08-02T12:26:04;5.65;;;2.10;;
21601;SDS011;10963;50.934;4.668;2022-08-02T12:28:37;3.70;;;1.75;;
21601;SDS011;10963;50.934;4.668;2022-08-02T12:31:04;4.13;;;1.70;;
21601;SDS011;10963;50.934;4.668;2022-08-02T12:33:47;1.55;;;1.45;;
21601;SDS011;10963;50.934;4.668;2022-08-02T12:36:19;3.30;;;1.90;;
21601;SDS011;10963;50.934;4.668;2022-08-02T12:38:54;1.65;;;1.50;;
21601;SDS011;10963;50.934;4.668;2022-08-02T12:41:25;2.40;;;1.50;;
21601;SDS011;10963;50.934;4.668;2022-08-02T12:43:52;1.73;;;1.60;;
21601;SDS011;10963;50.934;4.668;2022-08-02T12:46:19;2.92;;;1.40;;
21601;SDS011;10963;50.934;4.668;2022-08-02T12:48:51;2.03;;;1.80;;
21601;SDS011;10963;50.934;4.668;2022-08-02T12:51:29;3.47;;;1.80;;
21601;SDS011;10963;50.934;4.668;2022-08-02T12:54:12;1.88;;;1.70;;
21601;SDS011;10963;50.934;4.668;2022-08-02T12:56:43;4.68;;;2.10;;
21601;SDS011;10963;50.934;4.668;2022-08-02T12:59:11;1.77;;;1.63;;
21601;SDS011;10963;50.934;4.668;2022-08-02T13:01:40;5.55;;;2.22;;
21601;SDS011;10963;50.934;4.668;2022-08-02T13:04:06;5.25;;;1.80;;
21601;SDS011;10963;50.934;4.668;2022-08-02T13:06:37;2.70;;;1.80;;
21601;SDS011;10963;50.934;4.668;2022-08-02T13:09:10;2.45;;;1.63;;
21601;SDS011;10963;50.934;4.668;2022-08-02T13:11:44;3.05;;;1.50;;
21601;SDS011;10963;50.934;4.668;2022-08-02T13:14:12;5.05;;;2.05;;
21601;SDS011;10963;50.934;4.668;2022-08-02T13:16:38;2.63;;;1.75;;
21601;SDS011;10963;50.934;4.668;2022-08-02T13:19:08;2.70;;;1.60;;
21601;SDS011;10963;50.934;4.668;2022-08-02T13:21:41;4.38;;;1.58;;
21601;SDS011;10963;50.934;4.668;2022-08-02T13:24:13;3.65;;;1.80;;
21601;SDS011;10963;50.934;4.668;2022-08-02T13:26:40;2.63;;;1.60;;
21601;SDS011;10963;50.934;4.668;2022-08-02T13:29:09;2.55;;;1.40;;
21601;SDS011;10963;50.934;4.668;2022-08-02T13:31:35;5.68;;;1.70;;
21601;SDS011;10963;50.934;4.668;2022-08-02T13:34:04;3.20;;;1.65;;
21601;SDS011;10963;50.934;4.668;2022-08-02T13:36:31;2.00;;;1.77;;
21601;SDS011;10963;50.934;4.668;2022-08-02T13:38:58;4.78;;;1.80;;
21601;SDS011;10963;50.934;4.668;2022-08-02T13:41:27;1.92;;;1.70;;
21601;SDS011;10963;50.934;4.668;2022-08-02T13:43:57;2.83;;;1.63;;
21601;SDS011;10963;50.934;4.668;2022-08-02T13:46:23;1.88;;;1.65;;
21601;SDS011;10963;50.934;4.668;2022-08-02T13:48:49;1.83;;;1.73;;
21601;SDS011;10963;50.934;4.668;2022-08-02T13:51:15;1.98;;;1.52;;
21601;SDS011;10963;50.934;4.668;2022-08-02T13:53:45;3.75;;;1.60;;
21601;SDS011;10963;50.934;4.668;2022-08-02T13:56:11;3.50;;;1.67;;
21601;SDS011;10963;50.934;4.668;2022-08-02T13:58:40;1.70;;;1.60;;
21601;SDS011;10963;50.934;4.668;2022-08-02T14:01:05;2.58;;;1.65;;
21601;SDS011;10963;50.934;4.668;2022-08-02T14:03:31;5.40;;;1.80;;
21601;SDS011;10963;50.934;4.668;2022-08-02T14:05:57;2.13;;;1.60;;
21601;SDS011;10963;50.934;4.668;2022-08-02T14:08:22;5.32;;;1.50;;
21601;SDS011;10963;50.934;4.668;2022-08-02T14:10:50;1.83;;;1.60;;
21601;SDS011;10963;50.934;4.668;2022-08-02T14:13:16;4.72;;;1.52;;
21601;SDS011;10963;50.934;4.668;2022-08-02T14:15:42;2.75;;;1.48;;
21601;SDS011;10963;50.934;4.668;2022-08-02T14:18:11;3.35;;;1.60;;
21601;SDS011;10963;50.934;4.668;2022-08-02T14:20:38;2.78;;;1.45;;
21601;SDS011;10963;50.934;4.668;2022-08-02T14:23:04;2.83;;;1.50;;
21601;SDS011;10963;50.934;4.668;2022-08-02T14:25:30;3.95;;;1.60;;
21601;SDS011;10963;50.934;4.668;2022-08-02T14:27:56;2.47;;;1.40;;
21601;SDS011;10963;50.934;4.668;2022-08-02T14:30:26;2.17;;;1.50;;
21601;SDS011;10963;50.934;4.668;2022-08-02T14:32:54;2.65;;;1.60;;
21601;SDS011;10963;50.934;4.668;2022-08-02T14:35:23;2.65;;;1.50;;
21601;SDS011;10963;50.934;4.668;2022-08-02T14:37:53;3.20;;;1.60;;
21601;SDS011;10963;50.934;4.668;2022-08-02T14:40:19;2.17;;;1.98;;
21601;SDS011;10963;50.934;4.668;2022-08-02T14:42:47;7.38;;;2.00;;
21601;SDS011;10963;50.934;4.668;2022-08-02T14:45:16;3.58;;;1.48;;
21601;SDS011;10963;50.934;4.668;2022-08-02T14:47:43;2.33;;;1.90;;
21601;SDS011;10963;50.934;4.668;2022-08-02T14:50:09;2.47;;;1.40;;
21601;SDS011;10963;50.934;4.668;2022-08-02T14:52:35;5.20;;;2.00;;
21601;SDS011;10963;50.934;4.668;2022-08-02T14:55:02;5.40;;;1.88;;
21601;SDS011;10963;50.934;4.668;2022-08-02T14:57:35;3.35;;;1.90;;
21601;SDS011;10963;50.934;4.668;2022-08-02T15:00:02;4.43;;;1.80;;
21601;SDS011;10963;50.934;4.668;2022-08-02T15:02:32;4.68;;;1.52;;
21601;SDS011;10963;50.934;4.668;2022-08-02T15:04:57;2.97;;;1.42;;
21601;SDS011;10963;50.934;4.668;2022-08-02T15:07:23;2.42;;;1.30;;
21601;SDS011;10963;50.934;4.668;2022-08-02T15:09:52;4.38;;;1.50;;
21601;SDS011;10963;50.934;4.668;2022-08-02T15:12:17;3.10;;;2.10;;
21601;SDS011;10963;50.934;4.668;2022-08-02T15:14:48;3.30;;;1.50;;
21601;SDS011;10963;50.934;4.668;2022-08-02T15:17:16;3.17;;;1.58;;
21601;SDS011;10963;50.934;4.668;2022-08-02T15:19:49;3.38;;;1.67;;
21601;SDS011;10963;50.934;4.668;2022-08-02T15:22:17;4.85;;;1.65;;
21601;SDS011;10963;50.934;4.668;2022-08-02T15:24:50;4.10;;;2.05;;
21601;SDS011;10963;50.934;4.668;2022-08-02T15:27:15;2.97;;;1.73;;
21601;SDS011;10963;50.934;4.668;2022-08-02T15:29:42;4.50;;;1.50;;